Terminal Aerodrome Forecast
Issued by NWS

Home | Current Version | Previous Version | Text Only | Print | Product List | Glossary On
Versions: 1 2 3 4 5 6 7 8 9 10 11 12 13 14 15 16 17 18 19 20 21
972
FTUS41 KBGM 301735
TAFELM
TAF
KELM 301735Z 3018/0118 10007KT P6SM -SHRA OVC025
     FM302100 10007KT P6SM OVC020
     FM010400 11007KT 4SM BR OVC015
      TEMPO 0108/0112 2SM BR OVC010
     FM011500 14008KT P6SM OVC030=

USA.gov is the U.S. government's official web portal to all federal, state and local government web resources and services.